| time (UTC) | temp F | wind direction | speed knots | gust knots | rain 1hr in | rain 24hr in | rain mn in | humidity % | barometer mb |
| 20260507213029 | 83 | 138 | 1.7 | 3.5 | 0.00 | 0.00 | 0.00 | 74 | 1014.6 |
| 20260507211600 | 83 | 138 | 0.9 | 3.5 | 0.00 | 0.00 | 0.00 | 76 | 1014.7 |
| 20260507211506 | 83 | 138 | 0.9 | 3.5 | 0.00 | 0.00 | 0.00 | 75 | 1014.7 |
| 20260507210050 | 83 | 140 | 1.7 | 4.3 | 0.00 | 0.00 | 0.00 | 74 | 1014.7 |
| 20260507204523 | 84 | 140 | 1.7 | 3.5 | 0.00 | 0.00 | 0.00 | 73 | 1014.9 |
| 20260507203004 | 84 | 144 | 1.7 | 4.3 | 0.00 | 0.00 | 0.00 | 73 | 1015.1 |
| 20260507201543 | 84 | 126 | 0.9 | 2.6 | 0.00 | 0.00 | 0.00 | 73 | 1015.3 |
| 20260507200031 | 86 | 126 | 0.9 | 2.6 | 0.00 | 0.00 | 0.00 | 70 | 1015.5 |
| 20260507194557 | 85 | 127 | 1.7 | 3.5 | 0.00 | 0.00 | 0.00 | 73 | 1015.4 |
| 20260507193034 | 85 | 123 | 0.9 | 5.2 | 0.00 | 0.00 | 0.00 | 69 | 1015.7 |
| 20260507191513 | 84 | 130 | 0.9 | 3.5 | 0.00 | 0.00 | 0.00 | 71 | 1016.0 |
| 20260507184537 | 85 | 109 | 1.7 | 3.5 | 0.00 | 0.00 | 0.00 | 72 | 1016.4 |
| 20260507183016 | 85 | 109 | 0.9 | 5.2 | 0.00 | 0.00 | 0.00 | 71 | 1016.7 |
| 20260507181548 | 86 | 111 | 0.9 | 3.5 | 0.00 | 0.00 | 0.00 | 71 | 1017.0 |
| 20260507180029 | 85 | 115 | 0.9 | 2.6 | 0.00 | 0.00 | 0.00 | 72 | 1017.0 |
| 20260507174511 | 84 | 95 | 1.7 | 6.1 | 0.00 | 0.00 | 0.00 | 74 | 1017.0 |
| 20260507173054 | 83 | 102 | 2.6 | 3.5 | 0.00 | 0.00 | 0.00 | 75 | 1017.2 |
| 20260507171533 | 84 | 105 | 1.7 | 3.5 | 0.00 | 0.00 | 0.00 | 73 | 1017.0 |
| 20260507170012 | 86 | 172 | 0.9 | 3.5 | 0.00 | 0.00 | 0.00 | 71 | 1017.1 |
| 20260507164547 | 86 | 223 | 0.9 | 2.6 | 0.00 | 0.00 | 0.00 | 71 | 1017.2 |
| 20260507163025 | 86 | 273 | 0.0 | 4.3 | 0.00 | 0.00 | 0.00 | 69 | 1017.6 |
| 20260507161507 | 86 | 297 | 1.7 | 8.7 | 0.00 | 0.00 | 0.00 | 62 | 1017.6 |
| 20260507160039 | 86 | 273 | 3.5 | 7.8 | 0.00 | 0.00 | 0.00 | 64 | 1017.7 |
| 20260507154522 | 85 | 242 | 2.6 | 7.8 | 0.00 | 0.00 | 0.00 | 66 | 1017.8 |
| 20260507153058 | 84 | 227 | 1.7 | 7.8 | 0.00 | 0.00 | 0.00 | 66 | 1017.8 |
| 20260507153005 | 84 | 212 | 1.7 | 7.8 | 0.00 | 0.00 | 0.00 | 66 | 1017.9 |
| 20260507151539 | 84 | 305 | 3.5 | 7.8 | 0.00 | 0.00 | 0.00 | 66 | 1018.1 |
| 20260507150019 | 83 | 260 | 5.2 | 8.7 | 0.00 | 0.00 | 0.00 | 66 | 1018.1 |
| 20260507144558 | 83 | 281 | 4.3 | 7.0 | 0.00 | 0.00 | 0.00 | 67 | 1018.4 |
| 20260507143035 | 82 | 298 | 3.5 | 9.6 | 0.00 | 0.00 | 0.00 | 69 | 1018.3 |
| 20260507141510 | 81 | 248 | 4.3 | 9.6 | 0.00 | 0.00 | 0.00 | 69 | 1018.2 |
| 20260507140107 | 81 | 214 | 4.3 | 8.7 | 0.00 | 0.00 | 0.00 | 69 | 1018.2 |
| 20260507134525 | 80 | 270 | 3.5 | 9.6 | 0.00 | 0.00 | 0.00 | 70 | 1018.2 |
| 20260507133005 | 79 | 219 | 1.7 | 7.0 | 0.00 | 0.00 | 0.00 | 73 | 1018.2 |
| 20260507131547 | 78 | 209 | 1.7 | 7.0 | 0.00 | 0.00 | 0.00 | 75 | 1018.3 |
| 20260507130022 | 76 | 227 | 1.7 | 5.2 | 0.00 | 0.00 | 0.00 | 80 | 1018.2 |
| 20260507124614 | 75 | 222 | 2.6 | 5.2 | 0.00 | 0.00 | 0.00 | 82 | 1018.2 |
| 20260507124502 | 75 | 224 | 2.6 | 5.2 | 0.00 | 0.00 | 0.00 | 82 | 1018.2 |
| 20260507123055 | 73 | 219 | 2.6 | 5.2 | 0.00 | 0.00 | 0.00 | 84 | 1018.3 |
| 20260507121537 | 72 | 243 | 0.0 | 3.5 | 0.00 | 0.00 | 0.00 | 87 | 1018.3 |
| 20260507120007 | 71 | 244 | 0.9 | 3.5 | 0.00 | 0.00 | 0.00 | 89 | 1018.3 |
| 20260507114547 | 70 | 254 | 0.9 | 4.3 | 0.00 | 0.00 | 0.00 | 91 | 1018.3 |
| 20260507113033 | 69 | 254 | 0.9 | 3.5 | 0.00 | 0.00 | 0.00 | 91 | 1018.1 |
| 20260507111603 | 68 | 254 | 0.9 | 2.6 | 0.00 | 0.00 | 0.00 | 91 | 1018.0 |
| 20260507111503 | 68 | 254 | 0.9 | 2.6 | 0.00 | 0.00 | 0.00 | 91 | 1018.0 |
| 20260507110041 | 68 | 254 | 1.7 | 3.5 | 0.00 | 0.00 | 0.00 | 91 | 1017.9 |
| 20260507104519 | 68 | 254 | 2.6 | 6.1 | 0.00 | 0.00 | 0.00 | 91 | 1017.6 |
| 20260507103057 | 68 | 245 | 0.9 | 2.6 | 0.00 | 0.00 | 0.00 | 90 | 1017.5 |
| 20260507101544 | 68 | 245 | 1.7 | 3.5 | 0.00 | 0.00 | 0.00 | 90 | 1017.0 |
| 20260507100025 | 68 | 244 | 1.7 | 2.6 | 0.00 | 0.00 | 0.00 | 90 | 1016.7 |
| 20260507094556 | 68 | 245 | 0.9 | 1.7 | 0.00 | 0.00 | 0.00 | 90 | 1016.8 |
| 20260507094502 | 68 | 244 | 0.9 | 1.7 | 0.00 | 0.00 | 0.00 | 90 | 1016.7 |
| 20260507093040 | 69 | 244 | 0.9 | 2.6 | 0.00 | 0.00 | 0.00 | 89 | 1016.8 |
| 20260507091518 | 69 | 244 | 1.7 | 3.5 | 0.00 | 0.00 | 0.00 | 89 | 1016.7 |
| 20260507090100 | 69 | 243 | 0.9 | 2.6 | 0.00 | 0.00 | 0.00 | 89 | 1016.4 |
| 20260507090004 | 69 | 243 | 0.9 | 2.6 | 0.00 | 0.00 | 0.00 | 89 | 1016.4 |
| 20260507084551 | 70 | 244 | 0.9 | 2.6 | 0.00 | 0.00 | 0.00 | 88 | 1016.3 |
| 20260507083036 | 69 | 243 | 1.7 | 2.6 | 0.00 | 0.00 | 0.00 | 88 | 1016.3 |
| 20260507081508 | 69 | 243 | 1.7 | 4.3 | 0.00 | 0.00 | 0.00 | 88 | 1016.3 |
| 20260507080057 | 69 | 254 | 1.7 | 3.5 | 0.00 | 0.00 | 0.00 | 89 | 1016.4 |
| 20260507074529 | 69 | 259 | 1.7 | 3.5 | 0.00 | 0.00 | 0.00 | 89 | 1016.5 |
| 20260507073006 | 69 | 259 | 1.7 | 2.6 | 0.00 | 0.00 | 0.00 | 88 | 1016.7 |
| 20260507071558 | 69 | 259 | 1.7 | 3.5 | 0.00 | 0.00 | 0.00 | 88 | 1016.9 |
| 20260507070024 | 70 | 259 | 2.6 | 5.2 | 0.00 | 0.00 | 0.00 | 88 | 1017.0 |
| 20260507064559 | 70 | 257 | 2.6 | 5.2 | 0.00 | 0.00 | 0.00 | 87 | 1017.1 |
| 20260507063040 | 71 | 255 | 1.7 | 3.5 | 0.00 | 0.00 | 0.00 | 87 | 1017.4 |
| 20260507061514 | 71 | 255 | 1.7 | 3.5 | 0.00 | 0.00 | 0.00 | 86 | 1017.4 |
| 20260507060053 | 71 | 255 | 1.7 | 4.3 | 0.00 | 0.00 | 0.00 | 85 | 1017.5 |
| 20260507054536 | 72 | 254 | 1.7 | 3.5 | 0.00 | 0.00 | 0.00 | 83 | 1017.8 |
| 20260507053010 | 75 | 252 | 3.5 | 6.1 | 0.00 | 0.00 | 0.00 | 80 | 1018.0 |
| 20260507051548 | 77 | 188 | 2.6 | 4.3 | 0.00 | 0.00 | 0.00 | 77 | 1018.2 |
| 20260507050026 | 77 | 146 | 0.9 | 2.6 | 0.00 | 0.00 | 0.00 | 78 | 1018.1 |
| 20260507044505 | 77 | 134 | 0.9 | 3.5 | 0.00 | 0.00 | 0.00 | 78 | 1017.9 |
| 20260507043041 | 77 | 134 | 0.9 | 3.5 | 0.00 | 0.00 | 0.00 | 77 | 1017.7 |
| 20260507041525 | 77 | 134 | 0.9 | 2.6 | 0.00 | 0.00 | 0.00 | 79 | 1017.9 |
| 20260507040013 | 77 | 134 | 0.9 | 2.6 | 0.00 | 0.00 | 0.00 | 79 | 1017.9 |
| 20260507034553 | 77 | 135 | 0.9 | 2.6 | 0.00 | 0.00 | 0.00 | 79 | 1017.8 |
| 20260507033022 | 77 | 136 | 0.9 | 2.6 | 0.00 | 0.00 | 0.00 | 79 | 1017.8 |
| 20260507031602 | 78 | 136 | 0.9 | 2.6 | 0.00 | 0.00 | 0.00 | 79 | 1017.6 |
| 20260507030036 | 78 | 137 | 0.9 | 2.6 | 0.00 | 0.00 | 0.00 | 78 | 1017.9 |
| 20260507024515 | 78 | 138 | 0.9 | 2.6 | 0.00 | 0.00 | 0.00 | 77 | 1017.9 |
| 20260507023052 | 78 | 138 | 0.9 | 3.5 | 0.00 | 0.00 | 0.00 | 76 | 1018.0 |
| 20260507021534 | 78 | 138 | 0.9 | 3.5 | 0.00 | 0.00 | 0.00 | 77 | 1018.1 |
| 20260507020013 | 78 | 140 | 0.9 | 2.6 | 0.00 | 0.00 | 0.00 | 77 | 1018.1 |
| 20260507014602 | 78 | 141 | 0.9 | 2.6 | 0.00 | 0.00 | 0.00 | 75 | 1018.2 |
| 20260507013035 | 78 | 143 | 1.7 | 2.6 | 0.00 | 0.00 | 0.00 | 74 | 1018.2 |
| 20260507011511 | 78 | 142 | 0.9 | 2.6 | 0.00 | 0.00 | 0.00 | 75 | 1018.1 |
| 20260507010044 | 78 | 142 | 0.9 | 2.6 | 0.00 | 0.00 | 0.00 | 73 | 1017.9 |
| 20260507004525 | 78 | 142 | 0.9 | 1.7 | 0.00 | 0.00 | 0.00 | 72 | 1017.8 |
| 20260507003017 | 79 | 142 | 0.9 | 2.6 | 0.00 | 0.00 | 0.00 | 72 | 1017.8 |
| 20260507001605 | 79 | 141 | 0.9 | 2.6 | 0.00 | 0.00 | 0.00 | 71 | 1017.8 |
| 20260507000039 | 79 | 146 | 0.9 | 2.6 | 0.00 | 0.00 | 0.00 | 69 | 1017.6 |
| 20260506234512 | 80 | 150 | 0.9 | 2.6 | 0.00 | 0.00 | 0.00 | 69 | 1017.8 |
| 20260506233056 | 80 | 96 | 0.9 | 2.6 | 0.00 | 0.00 | 0.00 | 67 | 1017.8 |
| 20260506231537 | 81 | 96 | 1.7 | 2.6 | 0.00 | 0.00 | 0.00 | 64 | 1017.7 |
| 20260506230015 | 81 | 96 | 0.9 | 2.6 | 0.00 | 0.00 | 0.00 | 62 | 1017.8 |
| 20260506224552 | 82 | 96 | 0.9 | 2.6 | 0.00 | 0.00 | 0.00 | 60 | 1017.8 |
| 20260506223031 | 82 | 96 | 1.7 | 3.5 | 0.00 | 0.00 | 0.00 | 59 | 1017.7 |
| 20260506221511 | 82 | 94 | 0.9 | 3.5 | 0.00 | 0.00 | 0.00 | 60 | 1017.7 |
| 20260506220057 | 82 | 94 | 0.9 | 3.5 | 0.00 | 0.00 | 0.00 | 63 | 1017.9 |
| 20260506214527 | 82 | 94 | 1.7 | 3.5 | 0.00 | 0.00 | 0.00 | 62 | 1018.0 |